Time;durP1;ratioP1;P1;durP2;ratioP2;P2;SDS_P1;SDS_P2;PMS_P1;PMS_P2;Temp;Humidity;BMP_temperature;BMP_pressure;BME280_temperature;BME280_humidity;BME280_pressure;Samples;Min_cycle;Max_cycle;Signal;HPM_P1;HPM_P2
2021/08/01 00:00:16;;;;;;;20.85;10.85;;;16.10;99.90;;;;;;4995782;28;20022;-75
2021/08/01 00:02:43;;;;;;;20.92;10.68;;;16.10;99.90;;;;;;4994199;28;20035;-75
2021/08/01 00:05:10;;;;;;;19.15;10.80;;;16.10;99.90;;;;;;4992899;28;20026;-77
2021/08/01 00:07:37;;;;;;;17.40;10.95;;;16.10;99.90;;;;;;4993527;28;20029;-75
2021/08/01 00:10:08;;;;;;;24.58;11.15;;;16.10;99.90;;;;;;4978437;28;20050;-75
2021/08/01 00:12:34;;;;;;;27.27;10.73;;;16.10;99.90;;;;;;4973249;28;20490;-76
2021/08/01 00:15:00;;;;;;;23.20;12.60;;;16.10;99.90;;;;;;4973642;28;20066;-75
2021/08/01 00:17:25;;;;;;;21.00;11.68;;;16.10;99.90;;;;;;4973674;28;20019;-75
2021/08/01 00:19:51;;;;;;;28.02;12.65;;;16.10;99.90;;;;;;4960402;28;20023;-76
2021/08/01 00:22:17;;;;;;;17.77;11.18;;;16.10;99.90;;;;;;4974258;28;20388;-76
2021/08/01 00:24:43;;;;;;;22.23;12.50;;;16.00;99.90;;;;;;4973442;28;20426;-75
2021/08/01 00:27:09;;;;;;;18.52;11.75;;;16.00;99.90;;;;;;4964730;28;20054;-75
2021/08/01 00:29:34;;;;;;;20.30;12.25;;;16.00;99.90;;;;;;4969263;28;20037;-76
2021/08/01 00:32:02;;;;;;;19.95;12.70;;;16.00;99.90;;;;;;4973060;28;20037;-76
2021/08/01 00:34:28;;;;;;;20.15;11.55;;;16.00;99.90;;;;;;4973370;28;20034;-76
2021/08/01 00:36:54;;;;;;;27.35;12.88;;;15.90;99.90;;;;;;4973135;28;20019;-75
2021/08/01 00:39:19;;;;;;;21.58;11.23;;;16.00;99.90;;;;;;4972928;28;20118;-75
2021/08/01 00:41:45;;;;;;;21.00;12.35;;;15.90;99.90;;;;;;4973172;28;20025;-76
2021/08/01 00:44:11;;;;;;;19.83;12.60;;;15.80;99.90;;;;;;4963963;28;20126;-74
2021/08/01 00:46:39;;;;;;;18.27;11.75;;;15.90;99.90;;;;;;4967892;28;20070;-75
2021/08/01 00:49:04;;;;;;;19.75;12.55;;;15.90;99.90;;;;;;4972356;28;20414;-75
2021/08/01 00:51:30;;;;;;;21.95;11.45;;;15.90;99.90;;;;;;4971521;28;20046;-74
2021/08/01 00:53:57;;;;;;;16.88;12.45;;;15.90;99.90;;;;;;4958272;28;20023;-74
2021/08/01 00:56:23;;;;;;;16.67;11.93;;;15.90;99.90;;;;;;4972623;28;20475;-75
2021/08/01 00:58:49;;;;;;;15.50;11.23;;;16.20;99.90;;;;;;4972746;28;20031;-74
2021/08/01 01:01:18;;;;;;;20.02;14.00;;;15.80;99.90;;;;;;4972623;28;20054;-75
2021/08/01 01:04:03;;;;;;;20.35;12.05;;;15.80;99.90;;;;;;4972605;28;20069;-75
2021/08/01 01:06:57;;;;;;;22.45;13.05;;;15.80;99.90;;;;;;4972825;28;20114;-75
2021/08/01 01:09:35;;;;;;;15.73;11.00;;;15.80;99.90;;;;;;4972731;28;20033;-76
2021/08/01 01:12:05;;;;;;;20.10;11.65;;;15.80;99.90;;;;;;4972590;28;20041;-76
2021/08/01 01:14:36;;;;;;;17.60;10.97;;;15.80;99.90;;;;;;4972040;28;20027;-76
2021/08/01 01:17:03;;;;;;;12.80;10.30;;;15.70;99.90;;;;;;4972915;28;20026;-74
2021/08/01 01:20:13;;;;;;;21.92;11.18;;;15.70;99.90;;;;;;4959597;28;20483;-75
2021/08/01 01:22:46;;;;;;;15.63;10.20;;;15.70;99.90;;;;;;4975221;28;20031;-76
2021/08/01 01:25:23;;;;;;;17.20;11.27;;;15.60;99.90;;;;;;4983339;28;20035;-75
2021/08/01 01:28:09;;;;;;;15.15;11.82;;;15.70;99.90;;;;;;4972737;28;20027;-76
2021/08/01 01:30:39;;;;;;;22.13;11.18;;;15.60;99.90;;;;;;4973792;28;20030;-76
2021/08/01 01:33:09;;;;;;;14.07;10.30;;;15.60;99.90;;;;;;4973135;28;20026;-76
2021/08/01 01:35:40;;;;;;;12.73;11.38;;;15.60;99.90;;;;;;4972694;28;20029;-76
2021/08/01 01:38:07;;;;;;;16.20;9.80;;;15.60;99.90;;;;;;4972468;28;20019;-76
2021/08/01 01:40:35;;;;;;;16.30;9.80;;;15.60;99.90;;;;;;4972476;28;20117;-75
2021/08/01 01:43:02;;;;;;;17.52;10.02;;;15.60;99.90;;;;;;4971304;28;20025;-76
2021/08/01 01:45:29;;;;;;;19.52;9.60;;;15.60;99.90;;;;;;4972471;28;20173;-76
2021/08/01 01:47:55;;;;;;;18.90;10.52;;;15.70;99.90;;;;;;4972208;28;20038;-74
2021/08/01 01:50:21;;;;;;;14.73;9.70;;;15.70;99.90;;;;;;4972246;28;20041;-76
2021/08/01 01:52:48;;;;;;;17.92;10.95;;;15.70;99.90;;;;;;4972631;28;20387;-75
2021/08/01 01:55:16;;;;;;;16.15;12.65;;;15.70;99.90;;;;;;4977795;28;20037;-74
2021/08/01 01:57:42;;;;;;;22.70;13.73;;;15.70;99.90;;;;;;4980136;28;20058;-75
2021/08/01 02:00:08;;;;;;;15.63;12.23;;;15.80;99.90;;;;;;4973989;28;20521;-75
2021/08/01 02:02:36;;;;;;;21.15;12.40;;;15.80;99.90;;;;;;4975946;28;20023;-75
2021/08/01 02:05:02;;;;;;;16.80;12.27;;;15.80;99.90;;;;;;4974514;28;20041;-75
2021/08/01 02:07:30;;;;;;;16.05;12.65;;;15.80;99.90;;;;;;4976198;28;20026;-75
2021/08/01 02:10:06;;;;;;;21.17;13.20;;;15.80;99.90;;;;;;4974728;28;20046;-76
2021/08/01 02:12:47;;;;;;;15.75;11.80;;;15.80;99.90;;;;;;4976817;28;20057;-75
2021/08/01 02:15:21;;;;;;;15.77;10.55;;;15.80;99.90;;;;;;4976142;28;20088;-76
2021/08/01 02:18:03;;;;;;;16.80;11.20;;;15.80;99.90;;;;;;4970317;28;20086;-76
2021/08/01 02:20:40;;;;;;;13.70;11.18;;;15.90;99.90;;;;;;4969642;28;20031;-75
2021/08/01 02:23:09;;;;;;;16.20;11.85;;;15.90;99.90;;;;;;4975928;28;20027;-75
2021/08/01 02:25:37;;;;;;;17.58;9.93;;;15.80;99.90;;;;;;4975599;28;20137;-75
2021/08/01 02:28:07;;;;;;;14.43;11.00;;;15.90;99.90;;;;;;4976489;28;20015;-77
2021/08/01 02:30:33;;;;;;;15.52;10.90;;;15.90;99.90;;;;;;4976532;28;20126;-75
2021/08/01 02:32:59;;;;;;;21.10;9.20;;;15.80;99.90;;;;;;4974965;28;20102;-75
2021/08/01 02:35:25;;;;;;;17.55;9.70;;;15.80;99.90;;;;;;4976095;28;20034;-74
2021/08/01 02:37:56;;;;;;;14.57;8.00;;;15.80;99.90;;;;;;4975496;28;20113;-76
2021/08/01 02:40:25;;;;;;;14.30;8.13;;;15.80;99.90;;;;;;4975137;28;20038;-76
2021/08/01 02:42:51;;;;;;;16.58;8.85;;;15.80;99.90;;;;;;4975736;28;20386;-75
2021/08/01 02:45:18;;;;;;;11.98;8.10;;;15.80;99.90;;;;;;4975148;28;20515;-76
2021/08/01 02:47:45;;;;;;;21.13;8.60;;;15.80;99.90;;;;;;4975668;28;20037;-74
2021/08/01 02:50:13;;;;;;;17.30;9.25;;;15.70;99.90;;;;;;4975633;28;20026;-75
2021/08/01 02:52:48;;;;;;;17.15;8.90;;;15.70;99.90;;;;;;4975146;28;20101;-75
2021/08/01 02:55:18;;;;;;;21.70;9.68;;;15.70;99.90;;;;;;4976238;28;20031;-75
2021/08/01 02:57:47;;;;;;;16.60;9.15;;;15.70;99.90;;;;;;4975832;28;20122;-75
2021/08/01 03:00:14;;;;;;;17.33;8.60;;;15.70;99.90;;;;;;4975160;28;20090;-75
2021/08/01 03:02:39;;;;;;;14.95;8.85;;;15.60;99.90;;;;;;4975572;28;20023;-74
2021/08/01 03:05:06;;;;;;;17.10;8.82;;;15.60;99.90;;;;;;4974705;28;20037;-74
2021/08/01 03:07:33;;;;;;;10.48;8.35;;;15.60;99.90;;;;;;4974932;28;20062;-75
2021/08/01 03:09:59;;;;;;;13.60;8.60;;;15.60;99.90;;;;;;4975243;28;20149;-74
2021/08/01 03:12:24;;;;;;;22.05;8.88;;;15.60;99.90;;;;;;4975074;28;20491;-74
2021/08/01 03:14:50;;;;;;;22.88;10.25;;;15.60;99.90;;;;;;4975222;28;20509;-76
2021/08/01 03:17:16;;;;;;;19.58;9.70;;;15.90;99.90;;;;;;4974852;28;20042;-75
2021/08/01 03:19:41;;;;;;;17.88;9.40;;;15.60;99.90;;;;;;4962527;28;20507;-75
2021/08/01 03:22:08;;;;;;;15.52;8.93;;;15.50;99.90;;;;;;4974341;28;20022;-76
2021/08/01 03:24:33;;;;;;;17.80;9.68;;;15.60;99.90;;;;;;4975054;28;20034;-76
2021/08/01 03:26:59;;;;;;;23.75;10.70;;;15.40;99.90;;;;;;4974947;28;20110;-76
2021/08/01 03:29:25;;;;;;;19.67;10.43;;;15.40;99.90;;;;;;4974343;28;20026;-76
2021/08/01 03:31:50;;;;;;;20.25;9.82;;;15.40;99.90;;;;;;4975177;28;20474;-75
2021/08/01 03:34:16;;;;;;;31.63;11.73;;;15.40;99.90;;;;;;4974698;28;20483;-76
2021/08/01 03:36:41;;;;;;;18.30;10.25;;;15.40;99.90;;;;;;4974606;28;20023;-76
2021/08/01 03:39:07;;;;;;;23.73;10.85;;;15.40;99.90;;;;;;4974900;28;20470;-76
2021/08/01 03:41:33;;;;;;;17.67;11.52;;;15.40;99.90;;;;;;4973982;28;20029;-75
2021/08/01 03:43:59;;;;;;;19.50;10.30;;;15.40;99.90;;;;;;4974330;28;20507;-77
2021/08/01 03:46:24;;;;;;;24.00;10.00;;;15.40;99.90;;;;;;4988461;28;20022;-75
2021/08/01 03:48:50;;;;;;;18.80;11.82;;;15.40;99.90;;;;;;4973642;28;20499;-75
2021/08/01 03:51:16;;;;;;;21.70;11.25;;;15.40;99.90;;;;;;4974659;28;20031;-76
2021/08/01 03:53:41;;;;;;;22.88;11.43;;;15.40;99.90;;;;;;4974990;28;20023;-77
2021/08/01 03:56:07;;;;;;;21.02;11.02;;;15.40;99.90;;;;;;4973510;28;20065;-76
2021/08/01 03:58:33;;;;;;;20.40;10.70;;;15.30;99.90;;;;;;4974519;28;20124;-75
2021/08/01 04:00:59;;;;;;;21.13;11.15;;;15.40;99.90;;;;;;4974375;28;20027;-76
2021/08/01 04:03:24;;;;;;;24.08;12.02;;;15.30;99.90;;;;;;4973435;28;20030;-75
2021/08/01 04:05:50;;;;;;;26.30;11.98;;;15.30;99.90;;;;;;4965987;28;20054;-76
2021/08/01 04:08:16;;;;;;;29.55;12.70;;;15.30;99.90;;;;;;4968532;28;20093;-75
2021/08/01 04:10:41;;;;;;;22.45;12.10;;;15.30;99.90;;;;;;4973262;28;20507;-76
2021/08/01 04:13:07;;;;;;;28.52;11.65;;;15.30;99.90;;;;;;4973880;28;20023;-75
2021/08/01 04:15:33;;;;;;;25.58;12.02;;;15.30;99.90;;;;;;4974145;28;20027;-76
2021/08/01 04:18:02;;;;;;;27.70;12.13;;;15.30;99.90;;;;;;4966556;28;20109;-75
2021/08/01 04:20:28;;;;;;;27.83;12.52;;;15.30;99.90;;;;;;4967123;28;20502;-75
2021/08/01 04:22:54;;;;;;;23.63;12.30;;;15.30;99.90;;;;;;4973701;28;20027;-75
2021/08/01 04:25:21;;;;;;;24.63;12.77;;;15.30;99.90;;;;;;4973284;28;20090;-76
2021/08/01 04:27:46;;;;;;;19.30;12.07;;;15.30;99.90;;;;;;4973167;28;20022;-75
2021/08/01 04:30:12;;;;;;;37.35;13.95;;;15.30;99.90;;;;;;4973354;28;20390;-75
2021/08/01 04:32:38;;;;;;;29.55;13.35;;;15.30;99.90;;;;;;4972443;28;20019;-75
2021/08/01 04:35:04;;;;;;;28.50;13.25;;;15.30;99.90;;;;;;4979553;28;20026;-74
2021/08/01 04:37:30;;;;;;;19.95;13.07;;;15.30;99.90;;;;;;4979924;28;20085;-75
2021/08/01 04:39:55;;;;;;;26.25;13.05;;;15.30;99.90;;;;;;4972449;28;20411;-76
2021/08/01 04:42:24;;;;;;;27.73;12.50;;;15.30;99.90;;;;;;4973377;28;20077;-77
2021/08/01 04:44:49;;;;;;;24.02;14.30;;;15.40;99.90;;;;;;4972040;28;20038;-74
2021/08/01 04:47:15;;;;;;;36.92;15.50;;;15.40;99.90;;;;;;4973063;28;20023;-75
2021/08/01 04:49:41;;;;;;;23.50;13.25;;;15.40;99.90;;;;;;4972746;28;20031;-75
2021/08/01 04:52:07;;;;;;;37.25;16.58;;;15.50;99.90;;;;;;4979880;28;20098;-75
2021/08/01 04:54:36;;;;;;;32.58;16.75;;;15.50;99.90;;;;;;4979901;28;20114;-76
2021/08/01 04:57:05;;;;;;;28.05;15.75;;;15.50;99.90;;;;;;4979487;28;20025;-75
2021/08/01 04:59:37;;;;;;;23.90;15.02;;;15.60;99.90;;;;;;4980016;28;20026;-74
2021/08/01 05:02:03;;;;;;;41.65;18.52;;;15.60;99.90;;;;;;4973690;28;20025;-75
2021/08/01 05:04:29;;;;;;;39.28;19.67;;;15.60;99.90;;;;;;4973680;28;20166;-75
2021/08/01 05:06:58;;;;;;;36.55;20.98;;;15.60;99.90;;;;;;4972760;28;20375;-75
2021/08/01 05:09:23;;;;;;;45.47;22.50;;;15.60;99.90;;;;;;4973636;28;20055;-76
2021/08/01 05:11:49;;;;;;;47.88;23.08;;;15.60;99.90;;;;;;4973123;28;20113;-77
2021/08/01 05:14:15;;;;;;;45.70;23.98;;;15.60;99.90;;;;;;4972787;28;20038;-77
2021/08/01 05:16:41;;;;;;;49.22;23.92;;;15.70;99.90;;;;;;4973443;28;20023;-74
2021/08/01 05:19:07;;;;;;;50.78;25.67;;;15.70;99.90;;;;;;4959498;28;20078;-75
2021/08/01 05:21:32;;;;;;;51.30;26.42;;;15.70;99.90;;;;;;4980567;28;20034;-75
2021/08/01 05:23:58;;;;;;;55.85;26.35;;;15.70;99.90;;;;;;4979101;28;20031;-74
2021/08/01 05:26:24;;;;;;;50.40;27.00;;;15.70;99.90;;;;;;4973486;28;20542;-76
2021/08/01 05:28:49;;;;;;;48.35;26.35;;;15.70;99.90;;;;;;4972792;28;20360;-77
2021/08/01 05:31:15;;;;;;;54.22;25.23;;;15.70;99.90;;;;;;4973260;28;20023;-75
2021/08/01 05:33:41;;;;;;;49.58;25.35;;;15.80;99.90;;;;;;4973457;28;20023;-74
2021/08/01 05:36:07;;;;;;;48.38;27.42;;;15.80;99.90;;;;;;4976123;28;20364;-74
2021/08/01 05:38:34;;;;;;;48.35;26.23;;;15.80;99.90;;;;;;4976888;28;20031;-75
2021/08/01 05:40:59;;;;;;;59.63;27.38;;;15.90;99.90;;;;;;4975727;28;20023;-74
2021/08/01 05:43:25;;;;;;;51.42;27.00;;;16.00;99.90;;;;;;4977160;28;20030;-75
2021/08/01 05:45:50;;;;;;;45.72;27.02;;;16.10;99.90;;;;;;4976448;28;20062;-75
2021/08/01 05:48:16;;;;;;;56.90;29.90;;;16.20;99.90;;;;;;4976122;28;20105;-76
2021/08/01 05:50:41;;;;;;;53.17;27.25;;;16.20;99.90;;;;;;4976989;28;20479;-76
2021/08/01 05:53:07;;;;;;;51.30;26.85;;;16.40;99.90;;;;;;4976700;28;20422;-76
2021/08/01 05:55:33;;;;;;;55.50;26.20;;;16.40;99.90;;;;;;4976092;28;20961;-76
2021/08/01 05:57:58;;;;;;;41.10;26.33;;;16.50;99.90;;;;;;4976306;28;20050;-76
2021/08/01 06:00:24;;;;;;;48.30;25.50;;;16.60;99.90;;;;;;4976537;28;20019;-76
2021/08/01 06:02:49;;;;;;;46.03;25.77;;;16.60;99.90;;;;;;4976136;28;20027;-76
2021/08/01 06:05:15;;;;;;;51.33;25.67;;;16.60;99.90;;;;;;4976555;28;20048;-76
2021/08/01 06:07:40;;;;;;;46.45;24.95;;;16.70;99.90;;;;;;4976687;28;20170;-76
2021/08/01 06:10:06;;;;;;;41.28;24.17;;;16.80;99.90;;;;;;4974360;28;20348;-76
2021/08/01 06:12:32;;;;;;;43.70;24.67;;;16.80;99.90;;;;;;4976785;28;20479;-76
2021/08/01 06:15:00;;;;;;;46.08;25.23;;;16.90;99.90;;;;;;4976310;28;20022;-76
2021/08/01 06:17:26;;;;;;;53.58;26.48;;;17.00;99.90;;;;;;4973756;28;20053;-76
2021/08/01 06:19:56;;;;;;;48.08;24.77;;;17.00;99.90;;;;;;4962671;28;20420;-76
2021/08/01 06:22:22;;;;;;;39.60;23.58;;;17.10;99.90;;;;;;4966503;28;20094;-76
2021/08/01 06:24:48;;;;;;;41.58;23.17;;;17.70;99.90;;;;;;4962538;28;20051;-76
2021/08/01 06:27:14;;;;;;;42.85;21.95;;;17.20;99.90;;;;;;4957568;28;20015;-75
2021/08/01 06:29:39;;;;;;;36.15;20.75;;;17.30;99.90;;;;;;4957639;28;21361;-75
2021/08/01 06:32:05;;;;;;;41.95;22.38;;;17.30;99.90;;;;;;4956972;28;20027;-76
2021/08/01 06:34:31;;;;;;;37.47;21.08;;;17.40;99.90;;;;;;4957848;28;20059;-76
2021/08/01 06:36:56;;;;;;;33.72;20.92;;;17.40;99.90;;;;;;4957396;28;20042;-76
2021/08/01 06:39:22;;;;;;;41.22;21.67;;;17.50;99.90;;;;;;4959877;28;20069;-77
2021/08/01 06:41:47;;;;;;;38.03;22.20;;;17.50;99.90;;;;;;4962252;28;20431;-76
2021/08/01 06:44:13;;;;;;;37.83;21.52;;;17.50;99.90;;;;;;4960388;28;20134;-75
2021/08/01 06:46:39;;;;;;;32.35;19.42;;;17.60;99.90;;;;;;4959202;28;20027;-76
2021/08/01 06:49:04;;;;;;;32.85;21.50;;;17.70;99.90;;;;;;4959986;28;20483;-76
2021/08/01 06:51:30;;;;;;;41.17;22.38;;;17.70;99.90;;;;;;4958039;28;20046;-75
2021/08/01 06:53:55;;;;;;;37.72;21.17;;;17.80;99.90;;;;;;4959500;28;20019;-76
2021/08/01 06:56:21;;;;;;;34.90;20.85;;;17.90;99.90;;;;;;4956847;28;20475;-77
2021/08/01 06:58:47;;;;;;;28.88;19.10;;;18.00;99.90;;;;;;4957420;28;20062;-77
2021/08/01 07:01:12;;;;;;;33.92;19.88;;;18.10;99.90;;;;;;4958290;28;20067;-78
2021/08/01 07:03:39;;;;;;;27.90;18.98;;;18.10;99.90;;;;;;4959677;28;20015;-77
2021/08/01 07:06:04;;;;;;;30.25;19.08;;;18.20;99.90;;;;;;4956201;28;20086;-77
2021/08/01 07:08:30;;;;;;;29.17;19.15;;;18.30;99.90;;;;;;4958246;28;20023;-75
2021/08/01 07:10:55;;;;;;;36.13;20.95;;;18.30;99.90;;;;;;4958677;28;20039;-77
2021/08/01 07:13:21;;;;;;;29.67;18.95;;;18.40;99.90;;;;;;4955645;28;20020;-77
2021/08/01 07:15:48;;;;;;;27.90;18.35;;;18.40;99.90;;;;;;4956323;28;20035;-75
2021/08/01 07:18:13;;;;;;;32.80;19.10;;;18.50;99.90;;;;;;4959677;28;20051;-75
2021/08/01 07:20:39;;;;;;;31.75;20.42;;;18.60;99.90;;;;;;4957912;28;20023;-76
2021/08/01 07:23:06;;;;;;;39.33;21.85;;;18.60;99.90;;;;;;4959263;28;20048;-76
2021/08/01 07:25:32;;;;;;;34.50;20.27;;;18.60;99.90;;;;;;4963149;28;20043;-76
2021/08/01 07:27:57;;;;;;;33.30;21.35;;;18.60;99.90;;;;;;4956526;28;20022;-75
2021/08/01 07:30:23;;;;;;;36.53;22.30;;;18.60;99.90;;;;;;4956567;28;20383;-76
2021/08/01 07:32:49;;;;;;;30.48;20.13;;;18.70;99.90;;;;;;4956119;28;20805;-78
2021/08/01 07:35:14;;;;;;;32.20;19.35;;;18.60;99.90;;;;;;4959560;28;20022;-78
2021/08/01 07:37:40;;;;;;;33.15;19.55;;;18.60;99.90;;;;;;4973909;28;20019;-77
2021/08/01 07:40:06;;;;;;;26.98;18.88;;;18.80;99.90;;;;;;4966690;28;20113;-77
2021/08/01 07:42:32;;;;;;;31.85;18.23;;;19.00;99.90;;;;;;4969453;28;20467;-78
2021/08/01 07:45:02;;;;;;;22.60;15.10;;;19.30;99.90;;;;;;4964079;28;20041;-78
2021/08/01 07:47:30;;;;;;;24.20;14.85;;;19.50;99.90;;;;;;4958146;28;20023;-77
2021/08/01 07:49:56;;;;;;;16.33;12.75;;;19.70;99.90;;;;;;4965328;28;20030;-76
2021/08/01 07:52:21;;;;;;;19.52;12.52;;;19.90;99.90;;;;;;4964630;28;20019;-77
2021/08/01 07:54:48;;;;;;;12.32;11.00;;;20.00;99.90;;;;;;4956057;28;20494;-76
2021/08/01 07:57:30;;;;;;;16.02;9.95;;;20.00;99.90;;;;;;4973968;28;20050;-77
2021/08/01 07:59:58;;;;;;;14.40;8.63;;;20.00;99.90;;;;;;4973924;28;20368;-77
2021/08/01 08:02:24;;;;;;;10.20;9.02;;;20.00;99.90;;;;;;4968298;28;20030;-77
2021/08/01 08:04:50;;;;;;;14.05;10.27;;;19.80;99.90;;;;;;4954429;28;20039;-77
2021/08/01 08:07:16;;;;;;;12.15;9.05;;;19.60;99.90;;;;;;4979325;28;20102;-77
2021/08/01 08:09:43;;;;;;;9.70;8.60;;;19.40;99.90;;;;;;4974347;28;20138;-78
2021/08/01 08:12:09;;;;;;;14.50;9.07;;;19.20;99.90;;;;;;4974551;28;20024;-77
2021/08/01 08:14:35;;;;;;;8.80;7.22;;;19.00;99.90;;;;;;4960069;28;20365;-79
2021/08/01 08:17:01;;;;;;;7.43;6.47;;;18.80;99.90;;;;;;4957796;28;20085;-77
2021/08/01 08:19:27;;;;;;;7.55;6.95;;;18.70;99.90;;;;;;4958644;28;20113;-77
2021/08/01 08:21:54;;;;;;;8.75;7.72;;;18.60;99.90;;;;;;4962908;28;20106;-77
2021/08/01 08:24:20;;;;;;;11.65;7.80;;;18.50;99.90;;;;;;4969873;28;20629;-76
2021/08/01 08:26:45;;;;;;;11.02;8.30;;;18.80;99.90;;;;;;4973613;28;20109;-78
2021/08/01 08:29:11;;;;;;;11.55;7.65;;;19.10;99.90;;;;;;4973847;28;20018;-77
2021/08/01 08:31:36;;;;;;;11.93;8.30;;;18.40;99.90;;;;;;4981632;28;20026;-79
2021/08/01 08:34:02;;;;;;;10.00;8.07;;;18.40;99.90;;;;;;4985035;28;20185;-79
2021/08/01 08:36:27;;;;;;;11.80;8.30;;;18.40;99.90;;;;;;4966352;28;20029;-78
2021/08/01 08:38:53;;;;;;;11.55;7.53;;;18.30;99.90;;;;;;4968468;28;20031;-77
2021/08/01 08:41:20;;;;;;;7.70;7.07;;;18.40;99.90;;;;;;4971415;28;20065;-77
2021/08/01 08:43:46;;;;;;;7.85;7.03;;;18.30;99.90;;;;;;4968665;28;20101;-75
2021/08/01 08:46:13;;;;;;;9.32;7.05;;;18.30;99.90;;;;;;4969744;28;20030;-76
2021/08/01 08:48:40;;;;;;;11.27;7.28;;;18.20;99.90;;;;;;4968833;28;20085;-77
2021/08/01 08:51:09;;;;;;;7.85;7.05;;;18.10;99.90;;;;;;4970117;28;20085;-77
2021/08/01 08:53:48;;;;;;;7.65;5.65;;;18.70;99.90;;;;;;4966967;28;20379;-77
2021/08/01 08:56:15;;;;;;;8.70;6.05;;;18.60;99.90;;;;;;4971449;28;20497;-78
2021/08/01 08:58:42;;;;;;;7.90;4.75;;;18.10;99.90;;;;;;4960722;28;20043;-76
2021/08/01 09:01:07;;;;;;;6.88;4.35;;;18.10;99.90;;;;;;4966173;28;20027;-76
2021/08/01 09:03:34;;;;;;;3.10;2.38;;;18.00;99.90;;;;;;4964053;28;20019;-78
2021/08/01 09:06:00;;;;;;;2.50;2.30;;;18.00;99.90;;;;;;4959568;28;20110;-76
2021/08/01 09:08:26;;;;;;;1.92;1.73;;;18.00;99.90;;;;;;4962321;28;20019;-77
2021/08/01 09:10:55;;;;;;;1.98;1.88;;;18.70;99.90;;;;;;4968703;28;20051;-77
2021/08/01 09:13:44;;;;;;;1.50;1.40;;;17.90;99.90;;;;;;4956934;28;20082;-77
2021/08/01 09:16:10;;;;;;;1.70;1.60;;;17.90;99.90;;;;;;4959967;28;20039;-79
2021/08/01 09:18:35;;;;;;;2.03;1.50;;;17.90;99.90;;;;;;4958370;28;20027;-78
2021/08/01 09:21:01;;;;;;;2.20;2.05;;;18.00;99.90;;;;;;4959678;28;20505;-77
2021/08/01 09:23:27;;;;;;;5.55;2.35;;;18.20;99.90;;;;;;4959865;28;20423;-77
2021/08/01 09:26:10;;;;;;;2.53;2.20;;;18.20;99.90;;;;;;4960991;28;20031;-77
2021/08/01 09:28:36;;;;;;;2.83;2.63;;;18.40;99.90;;;;;;4960713;28;20842;-76
2021/08/01 09:31:06;;;;;;;3.33;3.13;;;19.00;99.90;;;;;;4957897;28;20034;-75
2021/08/01 09:33:41;;;;;;;3.47;2.90;;;19.50;99.90;;;;;;4958440;28;20020;-77
2021/08/01 09:36:18;;;;;;;2.58;2.40;;;18.80;99.90;;;;;;4960591;28;20034;-76
2021/08/01 09:38:46;;;;;;;2.30;2.20;;;18.90;99.90;;;;;;4961808;28;20031;-77
2021/08/01 09:41:12;;;;;;;2.80;2.60;;;19.00;99.90;;;;;;4961125;28;20058;-76
2021/08/01 09:43:49;;;;;;;2.83;2.17;;;19.10;99.90;;;;;;4959282;28;20387;-77
2021/08/01 09:46:35;;;;;;;2.55;2.35;;;19.00;99.90;;;;;;4958906;28;20065;-77
2021/08/01 09:49:12;;;;;;;5.30;2.40;;;19.00;99.90;;;;;;4961387;28;20086;-78
2021/08/01 09:51:42;;;;;;;2.55;2.35;;;19.10;99.90;;;;;;4963762;28;20034;-76
2021/08/01 09:54:08;;;;;;;3.45;3.15;;;19.20;99.90;;;;;;4966058;28;20482;-77
2021/08/01 09:56:34;;;;;;;3.10;2.90;;;19.10;99.90;;;;;;4973292;28;20045;-77
2021/08/01 09:59:00;;;;;;;3.42;3.20;;;19.30;99.90;;;;;;4969711;28;20113;-76
2021/08/01 10:01:26;;;;;;;4.07;3.67;;;19.40;99.90;;;;;;4968383;28;20134;-77
2021/08/01 10:03:51;;;;;;;4.93;4.53;;;19.60;99.90;;;;;;4971394;28;20045;-76
2021/08/01 10:06:20;;;;;;;4.93;4.53;;;19.80;99.90;;;;;;4967426;28;20028;-76
2021/08/01 10:08:47;;;;;;;5.80;5.22;;;20.10;99.90;;;;;;4970030;28;20027;-77
2021/08/01 10:11:15;;;;;;;5.05;4.65;;;20.30;99.90;;;;;;4969970;28;20553;-76
2021/08/01 10:13:42;;;;;;;6.40;5.43;;;20.40;99.90;;;;;;4970380;28;20031;-77
2021/08/01 10:16:09;;;;;;;6.93;5.78;;;20.60;99.90;;;;;;4969949;28;20030;-77
2021/08/01 10:18:39;;;;;;;6.30;5.80;;;20.90;99.90;;;;;;4971874;28;20053;-76
2021/08/01 10:21:05;;;;;;;5.20;4.80;;;21.10;99.90;;;;;;4971996;28;20553;-78
2021/08/01 10:23:59;;;;;;;5.22;4.72;;;21.30;99.90;;;;;;4965924;28;20038;-77
2021/08/01 10:26:33;;;;;;;5.95;4.55;;;21.20;99.90;;;;;;4964711;28;20046;-76
2021/08/01 10:29:01;;;;;;;11.75;5.03;;;21.30;99.90;;;;;;4968432;28;20352;-76
2021/08/01 10:31:42;;;;;;;14.15;5.22;;;20.70;99.90;;;;;;4965341;28;20475;-81
2021/08/01 10:34:27;;;;;;;;;;;19.90;99.90;;;;;;4964909;28;20058;-83
2021/08/01 10:36:56;;;;;;;10.50;4.55;;;18.90;99.90;;;;;;4967552;28;19946;-84
2021/08/01 10:39:26;;;;;;;5.97;5.47;;;18.10;99.90;;;;;;4966262;28;20027;-85
2021/08/01 10:41:52;;;;;;;7.07;6.38;;;17.70;99.90;;;;;;4967548;28;20027;-85
2021/08/01 10:44:19;;;;;;;6.88;6.28;;;17.50;99.90;;;;;;4965902;28;20082;-85
2021/08/01 10:46:46;;;;;;;6.18;5.53;;;17.40;99.90;;;;;;4969278;28;20535;-85
2021/08/01 10:49:12;;;;;;;8.23;7.47;;;17.40;99.90;;;;;;4964693;28;20059;-85
2021/08/01 10:51:40;;;;;;;10.18;7.30;;;17.40;99.90;;;;;;4969901;28;20026;-83
2021/08/01 10:54:21;;;;;;;9.88;8.73;;;17.40;99.90;;;;;;4972905;28;20411;-84
2021/08/01 10:56:47;;;;;;;10.35;9.27;;;17.40;99.90;;;;;;4974594;28;20025;-84
2021/08/01 10:59:44;;;;;;;10.07;9.07;;;17.60;99.90;;;;;;4974403;28;20112;-82
2021/08/01 11:02:14;;;;;;;10.70;9.82;;;17.80;99.90;;;;;;4976189;28;20029;-83
2021/08/01 11:04:43;;;;;;;10.07;9.17;;;17.90;99.90;;;;;;4974868;28;20109;-83
2021/08/01 11:07:09;;;;;;;11.15;10.27;;;18.00;99.90;;;;;;4983925;28;20400;-82
2021/08/01 11:09:34;;;;;;;13.25;10.77;;;18.20;99.90;;;;;;4975475;28;20046;-83
2021/08/01 11:12:21;;;;;;;8.95;8.25;;;18.40;99.90;;;;;;4973760;28;20062;-83
2021/08/01 11:14:48;;;;;;;5.32;4.82;;;18.50;99.90;;;;;;4973977;28;20033;-83
2021/08/01 11:17:14;;;;;;;4.78;4.10;;;18.60;99.90;;;;;;4977348;28;20046;-82
2021/08/01 11:19:39;;;;;;;5.10;4.65;;;18.50;99.90;;;;;;4975007;28;20057;-82
2021/08/01 11:22:05;;;;;;;4.40;4.05;;;18.50;99.90;;;;;;4973248;28;20423;-83
2021/08/01 11:24:31;;;;;;;4.90;4.50;;;18.40;99.90;;;;;;4973607;28;20486;-84
2021/08/01 11:27:11;;;;;;;4.90;4.22;;;18.30;99.90;;;;;;4966333;28;20054;-82
2021/08/01 11:29:56;;;;;;;5.15;4.75;;;18.30;99.90;;;;;;4971434;28;20077;-82
2021/08/01 11:32:22;;;;;;;4.82;4.43;;;18.30;99.90;;;;;;4974576;28;20390;-82
2021/08/01 11:34:48;;;;;;;8.55;4.97;;;18.40;99.90;;;;;;4974560;28;20023;-81
2021/08/01 11:37:18;;;;;;;5.38;4.88;;;18.40;99.90;;;;;;4970686;28;20054;-81
2021/08/01 11:39:52;;;;;;;5.05;4.43;;;18.50;99.90;;;;;;4970093;28;20023;-81
2021/08/01 11:42:25;;;;;;;4.13;3.80;;;18.70;99.90;;;;;;4976594;28;20031;-82
2021/08/01 11:44:56;;;;;;;4.30;4.00;;;18.80;99.90;;;;;;4963475;28;20513;-82
2021/08/01 11:47:23;;;;;;;2.95;2.55;;;19.00;99.90;;;;;;4981478;28;20053;-82
2021/08/01 11:49:49;;;;;;;2.55;2.35;;;19.10;99.90;;;;;;4973638;28;20113;-82
2021/08/01 11:52:32;;;;;;;2.35;2.15;;;19.20;99.90;;;;;;4974320;28;20026;-82
2021/08/01 11:54:58;;;;;;;3.03;2.72;;;19.20;99.90;;;;;;4973555;28;20376;-81
2021/08/01 11:57:29;;;;;;;4.07;2.65;;;19.30;99.90;;;;;;4969739;28;20035;-81
2021/08/01 11:59:55;;;;;;;2.17;1.98;;;19.40;99.90;;;;;;4962946;28;20023;-80
2021/08/01 12:02:21;;;;;;;2.72;2.30;;;19.50;99.90;;;;;;4962628;28;20406;-79
2021/08/01 12:04:55;;;;;;;6.80;2.30;;;19.70;99.90;;;;;;4962572;28;20127;-80
2021/08/01 12:07:21;;;;;;;2.00;1.90;;;19.70;99.90;;;;;;4965067;28;20031;-80
2021/08/01 12:09:47;;;;;;;2.30;2.10;;;19.80;99.90;;;;;;4973557;28;20035;-80
2021/08/01 12:12:12;;;;;;;2.35;2.17;;;19.90;99.90;;;;;;4974628;28;20121;-79
2021/08/01 12:14:42;;;;;;;3.95;2.40;;;20.00;99.90;;;;;;4973853;28;20027;-79
2021/08/01 12:17:10;;;;;;;3.42;2.92;;;20.10;99.90;;;;;;4959892;28;20542;-80
2021/08/01 12:19:41;;;;;;;2.75;2.10;;;20.20;99.90;;;;;;4957826;28;20468;-80
2021/08/01 12:22:08;;;;;;;;;;;20.30;99.90;;;;;;4959975;28;20031;-80
2021/08/01 12:24:45;;;;;;;4.53;3.35;;;20.40;99.90;;;;;;4960009;28;19921;-79
2021/08/01 12:27:17;;;;;;;2.80;2.47;;;20.60;99.90;;;;;;4960126;28;20019;-79
2021/08/01 12:29:45;;;;;;;3.92;2.90;;;20.60;99.90;;;;;;4959425;28;20034;-78
2021/08/01 12:32:29;;;;;;;3.30;2.78;;;20.70;99.90;;;;;;4956521;28;20502;-71
2021/08/01 12:35:37;;;;;;;3.95;3.00;;;20.70;99.90;;;;;;4960024;28;20110;-77
2021/08/01 12:38:05;;;;;;;3.17;2.78;;;20.80;99.90;;;;;;4959995;28;20062;-79
2021/08/01 12:40:44;;;;;;;2.80;2.60;;;20.90;99.90;;;;;;4966689;28;20043;-78